»·PEaware :: ASA1150 KBZN-KPDX

ASA1150 :: KBZN-KPDX

FLIGHT INFORMATION

Flight Status: Arrived
Operator:
Alaska Airlines
More flights by this operator :: More flights under this callsign
Pilot: Michael F. (26726)
Aircraft: BOEING 737-800
(B738)
More flights by this aircraft type
Origin: KBZN Gallatin
United States
Destination: KPDX Portland Intl
United States
More flights between these airports :: More routes between these airports
Route: TEERX4 HIA J16 PDT BAYYR HHOOD4
File this flight plan on PilotEdge
Remarks: RMK / SIMBRIEF
Altitude:
(Current/Filed)
32,000ft
Speed:
(Current/Filed)
431kts
Departed: 07-Nov-20 09:36 PM
Arrived: 07-Nov-20 10:51 PM
Distance/Time
Traveled:
479nm/1:15
Distance/Time
To Go:
Arrived

Flight Plot

Page will automatically refresh every two minutes.

Flight plan parsing failed; only flown route is shown


Map Options




Map Legend


Flown Route
Filed Route
Departure Airport
Arrival Airport
Navaid (VOR, NDB)
Fix

Horizontal Profiles

Position Reports

Time Latitude Longitude Heading Altitude Ground
Speed
07-Nov-20 21:11 45.778557 -111.160015 229 4480ft 0kts
07-Nov-20 21:11 45.778557 -111.160015 229 4480ft 0kts
07-Nov-20 21:12 45.778557 -111.160015 229 4480ft 0kts
07-Nov-20 21:13 45.778557 -111.160015 229 4480ft 0kts
07-Nov-20 21:14 45.778557 -111.160015 229 4480ft 0kts
07-Nov-20 21:15 45.778557 -111.160015 229 4480ft 0kts
07-Nov-20 21:16 45.778557 -111.160015 229 4480ft 0kts
07-Nov-20 21:17 45.778557 -111.160015 229 4480ft 0kts
07-Nov-20 21:18 45.778557 -111.160015 229 4480ft 0kts
07-Nov-20 21:19 45.778557 -111.160015 229 4480ft 0kts
07-Nov-20 21:20 45.778557 -111.160015 229 4480ft 0kts
07-Nov-20 21:21 45.778557 -111.160015 229 4480ft 0kts
07-Nov-20 21:22 45.778557 -111.160015 229 4480ft 0kts
07-Nov-20 21:23 45.778557 -111.160015 229 4480ft 0kts
07-Nov-20 21:24 45.778557 -111.160015 229 4480ft 0kts
07-Nov-20 21:25 45.778557 -111.160015 229 4480ft 0kts
07-Nov-20 21:26 45.778557 -111.160015 229 4480ft 0kts
07-Nov-20 21:27 45.778724 -111.159382 287 4480ft 2kts
07-Nov-20 21:28 45.778491 -111.158935 315 4480ft 0kts
07-Nov-20 21:29 45.778491 -111.158935 315 4480ft 0kts
07-Nov-20 21:30 45.778491 -111.158935 315 4480ft 0kts
07-Nov-20 21:31 45.779518 -111.159058 8 4480ft 8kts
07-Nov-20 21:32 45.781948 -111.162069 317 4480ft 16kts
07-Nov-20 21:33 45.785598 -111.167135 315 4480ft 14kts
07-Nov-20 21:34 45.787467 -111.165972 103 4480ft 14kts
07-Nov-20 21:35 45.770245 -111.141436 139 4597ft 167kts
07-Nov-20 21:36 45.726030 -111.152620 232 6770ft 220kts
07-Nov-20 21:37 45.705661 -111.245300 276 8798ft 280kts
07-Nov-20 21:38 45.715550 -111.363234 278 10957ft 327kts
07-Nov-20 21:39 45.731166 -111.502543 275 13062ft 366kts
07-Nov-20 21:40 45.747502 -111.647375 277 15972ft 379kts
07-Nov-20 21:41 45.778423 -111.789047 282 16007ft 370kts
07-Nov-20 21:42 45.809659 -111.930844 281 18060ft 374kts
07-Nov-20 21:43 45.841535 -112.076528 281 20218ft 396kts
07-Nov-20 21:44 45.858994 -112.234860 266 21997ft 410kts
07-Nov-20 21:45 45.861507 -112.402261 264 23603ft 430kts
07-Nov-20 21:46 45.863132 -112.577122 264 25185ft 444kts
07-Nov-20 21:47 45.863508 -112.756132 263 26648ft 453kts
07-Nov-20 21:48 45.863426 -112.938818 262 27858ft 462kts
07-Nov-20 21:49 45.863049 -113.125220 262 28850ft 471kts
07-Nov-20 21:50 45.862350 -113.315073 261 29616ft 480kts
07-Nov-20 21:51 45.861320 -113.507755 261 30338ft 483kts
07-Nov-20 21:52 45.859979 -113.699572 260 31364ft 477kts
07-Nov-20 21:53 45.858317 -113.890076 260 31429ft 475kts
07-Nov-20 21:54 45.856373 -114.078391 260 31426ft 471kts
07-Nov-20 21:55 45.854120 -114.266338 260 31476ft 470kts
07-Nov-20 21:56 45.851560 -114.453916 260 31502ft 470kts
07-Nov-20 21:57 45.848701 -114.641490 260 31524ft 470kts
07-Nov-20 21:58 45.845536 -114.828889 261 31550ft 470kts
07-Nov-20 21:59 45.842060 -115.016261 261 31574ft 469kts
07-Nov-20 22:00 45.838282 -115.203381 261 31596ft 468kts
07-Nov-20 22:01 45.834204 -115.389673 261 31584ft 467kts
07-Nov-20 22:02 45.829829 -115.575829 261 31593ft 466kts
07-Nov-20 22:03 45.825160 -115.761653 261 31585ft 465kts
07-Nov-20 22:04 45.820204 -115.946806 261 31578ft 465kts
07-Nov-20 22:05 45.814950 -116.131802 261 31575ft 464kts
07-Nov-20 22:06 45.809400 -116.316865 261 31566ft 464kts
07-Nov-20 22:07 45.803555 -116.501809 261 31567ft 464kts
07-Nov-20 22:08 45.797418 -116.686405 261 31571ft 463kts
07-Nov-20 22:09 45.790996 -116.870520 261 31577ft 462kts
07-Nov-20 22:10 45.784298 -117.054298 261 31588ft 460kts
07-Nov-20 22:11 45.777339 -117.237142 261 31612ft 458kts
07-Nov-20 22:12 45.770131 -117.418716 261 31621ft 457kts
07-Nov-20 22:13 45.762629 -117.600442 261 31628ft 455kts
07-Nov-20 22:14 45.754893 -117.780922 261 31635ft 454kts
07-Nov-20 22:15 45.746856 -117.961682 261 31643ft 453kts
07-Nov-20 22:16 45.738572 -118.141567 261 31636ft 454kts
07-Nov-20 22:17 45.729964 -118.322172 261 31632ft 454kts
07-Nov-20 22:18 45.721090 -118.502333 261 31646ft 453kts
07-Nov-20 22:19 45.711956 -118.682040 262 31673ft 453kts
07-Nov-20 22:20 45.702555 -118.861475 262 31692ft 453kts
07-Nov-20 22:21 45.692432 -119.041273 262 31691ft 453kts
07-Nov-20 22:22 45.681743 -119.220687 262 31695ft 453kts
07-Nov-20 22:23 45.670767 -119.400117 262 31698ft 452kts
07-Nov-20 22:24 45.659535 -119.579050 262 31698ft 452kts
07-Nov-20 22:25 45.648035 -119.757720 262 31700ft 452kts
07-Nov-20 22:26 45.636264 -119.936151 261 30455ft 450kts
07-Nov-20 22:27 45.624183 -120.115134 261 28299ft 453kts
07-Nov-20 22:28 45.611796 -120.294367 261 26134ft 447kts
07-Nov-20 22:29 45.599520 -120.467992 261 24044ft 433kts
07-Nov-20 22:30 45.587350 -120.636467 262 22022ft 418kts
07-Nov-20 22:31 45.575395 -120.798689 263 20066ft 405kts
07-Nov-20 22:32 45.563589 -120.955874 264 18168ft 391kts
07-Nov-20 22:33 45.552193 -121.104942 265 16508ft 365kts
07-Nov-20 22:34 45.541291 -121.245059 265 14826ft 345kts
07-Nov-20 22:35 45.530885 -121.376798 265 13233ft 323kts
07-Nov-20 22:36 45.528904 -121.499940 273 11681ft 299kts
07-Nov-20 22:37 45.529333 -121.614684 272 10215ft 279kts
07-Nov-20 22:38 45.529552 -121.722035 274 8886ft 261kts
07-Nov-20 22:39 45.533461 -121.824385 275 8178ft 257kts
07-Nov-20 22:40 45.537061 -121.925939 275 7472ft 254kts
07-Nov-20 22:41 45.540740 -122.024994 259 6780ft 238kts
07-Nov-20 22:42 45.510901 -122.102860 239 6238ft 226kts
07-Nov-20 22:43 45.477813 -122.177784 266 5671ft 220kts
07-Nov-20 22:45 45.479987 -122.265366 276 4416ft 220kts
07-Nov-20 22:46 45.495290 -122.341417 299 3565ft 192kts
07-Nov-20 22:47 45.520440 -122.405091 300 2589ft 176kts
07-Nov-20 22:48 45.541160 -122.458166 300 1782ft 143kts
07-Nov-20 22:49 45.560030 -122.506610 301 1006ft 134kts
07-Nov-20 22:50 45.578512 -122.553812 301 315ft 135kts
07-Nov-20 22:51 45.591473 -122.587365 290 39ft 26kts
07-Nov-20 22:52 45.592367 -122.592590 306 39ft 6kts
07-Nov-20 22:53 45.593677 -122.595913 295 39ft 10kts
07-Nov-20 22:54 45.591933 -122.599038 231 39ft 9kts
07-Nov-20 22:55 45.590666 -122.600870 194 39ft 6kts
07-Nov-20 22:56 45.588114 -122.597975 116 39ft 17kts
07-Nov-20 22:57 45.587845 -122.596927 44 39ft 0kts
07-Nov-20 22:58 45.588431 -122.598294 296 39ft 1kts
07-Nov-20 22:59 45.588899 -122.598024 23 39ft 2kts
07-Nov-20 23:00 45.589003 -122.597968 17 39ft 0kts
07-Nov-20 23:01 45.589003 -122.597968 17 39ft 0kts
07-Nov-20 23:02 45.589003 -122.597968 17 39ft 0kts
07-Nov-20 23:02 45.589003 -122.597968 17 39ft 0kts
07-Nov-20 23:04 45.589003 -122.597968 17 39ft 0kts
07-Nov-20 23:04 45.589003 -122.597968 17 39ft 0kts

Navigation Log

Ident Type
Flight plan parsing failed, navigation log unavailable